createdAt,value
2022-11-29T00:00:32.331Z,91.21
2022-11-29T00:03:34.641Z,91.52
2022-11-29T00:06:36.801Z,91.29
2022-11-29T00:09:38.711Z,91.72
2022-11-29T00:12:40.642Z,91.84
2022-11-29T00:15:55.449Z,91.30
2022-11-29T00:18:57.351Z,92.67
2022-11-29T00:22:00.095Z,93.04
2022-11-29T00:25:01.993Z,92.93
2022-11-29T00:28:04.075Z,94.05
2022-11-29T00:31:19.215Z,94.70
2022-11-29T00:34:21.292Z,95.33
2022-11-29T00:37:23.170Z,95.76
2022-11-29T00:40:25.072Z,96.06
2022-11-29T00:43:27.199Z,96.32
2022-11-29T00:46:29.076Z,96.41
2022-11-29T00:49:31.111Z,97.06
2022-11-29T00:52:32.978Z,96.31
2022-11-29T00:55:34.827Z,96.65
2022-11-29T00:58:37.434Z,96.47
2022-11-29T01:01:39.369Z,96.75
2022-11-29T01:04:41.431Z,97.00
2022-11-29T01:07:43.520Z,96.53
2022-11-29T01:10:45.813Z,96.79
2022-11-29T01:13:49.101Z,96.77
2022-11-29T01:31:38.362Z,96.77
2022-11-29T01:34:40.437Z,96.21
2022-11-29T01:37:42.406Z,97.09
2022-11-29T01:40:45.165Z,96.16
2022-11-29T01:44:26.798Z,96.52
2022-11-29T01:47:29.432Z,96.38
2022-11-29T01:50:31.394Z,96.32
2022-11-29T01:53:33.447Z,96.57
2022-11-29T01:56:35.991Z,96.79
2022-11-29T01:59:44.296Z,96.65
2022-11-29T02:02:54.368Z,96.58
2022-11-29T02:05:56.299Z,97.14
2022-11-29T02:08:58.295Z,96.78
2022-11-29T02:12:25.626Z,97.02
2022-11-29T02:15:47.369Z,96.95
2022-11-29T02:19:16.807Z,96.93
2022-11-29T02:22:32.990Z,96.89
2022-11-29T02:25:53.128Z,96.42
2022-11-29T02:29:03.887Z,97.26
2022-11-29T02:32:43.248Z,97.08
2022-11-29T02:36:03.214Z,97.59
2022-11-29T02:39:44.227Z,97.18
2022-11-29T02:43:36.125Z,97.36
2022-11-29T02:46:57.476Z,97.45
2022-11-29T02:50:30.094Z,97.00
2022-11-29T02:53:57.943Z,96.89
2022-11-29T02:57:41.359Z,96.73
2022-11-29T03:00:57.131Z,97.17
2022-11-29T03:04:37.441Z,97.30
2022-11-29T03:07:52.967Z,96.62
2022-11-29T03:11:34.559Z,97.12
2022-11-29T03:14:46.194Z,97.19
2022-11-29T03:17:56.819Z,97.28
2022-11-29T03:37:14.132Z,97.30
2022-11-29T03:40:38.896Z,97.36
2022-11-29T03:43:50.569Z,96.75
2022-11-29T03:47:01.664Z,97.19
2022-11-29T03:50:19.123Z,97.27
2022-11-29T03:53:36.867Z,97.84
2022-11-29T03:56:41.157Z,97.21
2022-11-29T04:00:10.008Z,97.19
2022-11-29T04:03:32.934Z,96.90
2022-11-29T04:06:34.787Z,97.40
2022-11-29T04:09:48.091Z,97.21
2022-11-29T04:13:08.514Z,96.79
2022-11-29T04:16:32.294Z,97.08
2022-11-29T04:19:46.359Z,97.32
2022-11-29T04:23:13.347Z,97.39
2022-11-29T04:26:42.803Z,96.81
2022-11-29T04:29:50.623Z,96.70
2022-11-29T04:33:04.375Z,96.89
2022-11-29T04:36:12.399Z,96.56
2022-11-29T04:39:37.681Z,97.12
2022-11-29T04:42:52.808Z,97.13
2022-11-29T04:46:12.876Z,97.19
2022-11-29T04:49:36.844Z,97.66
2022-11-29T04:53:04.312Z,96.72
2022-11-29T04:56:38.475Z,97.01
2022-11-29T04:59:51.836Z,97.00
2022-11-29T05:03:02.098Z,97.20
2022-11-29T05:06:19.718Z,96.98
2022-11-29T05:09:55.408Z,97.38
2022-11-29T05:13:00.290Z,96.67
2022-11-29T05:16:31.596Z,97.25
2022-11-29T05:19:47.317Z,97.49
2022-11-29T05:22:53.170Z,96.75
2022-11-29T05:26:02.398Z,97.04
2022-11-29T05:29:10.835Z,96.66
2022-11-29T05:32:32.608Z,97.08
2022-11-29T05:35:45.365Z,97.06
2022-11-29T05:39:19.112Z,96.87
2022-11-29T05:42:38.636Z,96.83
2022-11-29T05:45:46.856Z,97.45
2022-11-29T05:48:53.592Z,97.12
2022-11-29T06:04:48.296Z,97.09
2022-11-29T06:08:04.259Z,97.67
2022-11-29T06:11:24.183Z,97.20
2022-11-29T06:15:16.443Z,96.88
2022-11-29T06:18:36.918Z,96.87
2022-11-29T06:22:00.271Z,97.42
2022-11-29T06:25:23.999Z,97.24
2022-11-29T06:29:01.871Z,97.90
2022-11-29T06:32:25.282Z,97.78
2022-11-29T06:35:45.899Z,97.30
2022-11-29T06:39:05.738Z,97.28
2022-11-29T06:42:27.545Z,97.26
2022-11-29T06:45:52.692Z,97.54
2022-11-29T06:49:26.827Z,97.37
2022-11-29T06:52:54.809Z,97.28
2022-11-29T06:56:04.236Z,97.08
2022-11-29T06:59:44.654Z,97.04
2022-11-29T07:03:20.862Z,97.52
2022-11-29T07:06:25.982Z,96.80
2022-11-29T07:09:34.596Z,97.07
2022-11-29T07:12:36.868Z,96.78
2022-11-29T07:15:40.849Z,98.01
2022-11-29T07:19:07.228Z,97.55
2022-11-29T07:22:36.392Z,97.72
2022-11-29T07:26:15.354Z,97.10
2022-11-29T07:29:29.427Z,97.34
2022-11-29T07:32:58.737Z,97.64
2022-11-29T07:36:37.528Z,97.29
2022-11-29T07:39:51.203Z,97.12
2022-11-29T07:43:28.636Z,97.26
2022-11-29T07:46:30.514Z,97.35
2022-11-29T07:49:32.368Z,97.17
2022-11-29T07:52:34.533Z,97.30
2022-11-29T07:55:37.471Z,97.68
2022-11-29T07:58:39.609Z,97.01
2022-11-29T08:01:42.016Z,96.79
2022-11-29T08:04:47.285Z,97.59
2022-11-29T08:07:49.714Z,97.15
2022-11-29T08:10:51.734Z,97.06
2022-11-29T08:14:01.985Z,96.99
2022-11-29T08:17:04.083Z,97.58
2022-11-29T08:20:07.440Z,97.34
2022-11-29T08:23:12.600Z,97.39
2022-11-29T08:26:16.222Z,97.41
2022-11-29T08:29:19.177Z,96.97
2022-11-29T08:32:21.036Z,96.37
2022-11-29T08:35:24.168Z,96.95
2022-11-29T08:38:26.048Z,96.46
2022-11-29T08:41:28.120Z,95.78
2022-11-29T08:44:29.956Z,95.98
2022-11-29T08:47:37.944Z,95.13
2022-11-29T08:50:39.751Z,95.74
2022-11-29T08:53:41.777Z,96.18
2022-11-29T09:00:07.068Z,95.68
2022-11-29T09:03:29.342Z,95.44
2022-11-29T09:06:39.899Z,95.14
2022-11-29T09:09:41.948Z,95.50
2022-11-29T09:12:44.954Z,95.44
2022-11-29T09:15:46.928Z,96.16
2022-11-29T09:18:52.082Z,95.78
2022-11-29T09:21:54.442Z,94.35
2022-11-29T09:24:56.394Z,95.45
2022-11-29T09:28:01.906Z,95.18
2022-11-29T09:31:08.954Z,94.73
2022-11-29T09:34:15.250Z,93.80
2022-11-29T09:37:17.087Z,92.97
2022-11-29T09:40:27.440Z,94.44
2022-11-29T09:44:03.167Z,94.26
2022-11-29T09:47:26.450Z,92.68
2022-11-29T09:50:35.418Z,92.99
2022-11-29T09:54:04.662Z,93.65
2022-11-29T09:57:10.514Z,93.31
2022-11-29T10:00:20.048Z,92.71
2022-11-29T10:03:44.610Z,94.02
2022-11-29T10:06:54.598Z,92.43
2022-11-29T10:10:02.376Z,93.10
2022-11-29T10:13:13.828Z,93.03
2022-11-29T10:16:34.449Z,91.85
2022-11-29T10:19:42.646Z,92.87
2022-11-29T10:23:05.962Z,93.44
2022-11-29T10:26:08.343Z,93.18
2022-11-29T10:29:14.810Z,93.36
2022-11-29T10:32:19.744Z,93.39
2022-11-29T10:35:22.771Z,93.83
2022-11-29T10:38:32.497Z,93.05
2022-11-29T10:41:35.738Z,92.76
2022-11-29T10:44:37.565Z,92.39
2022-11-29T10:47:39.594Z,92.48
2022-11-29T10:50:46.728Z,92.03
2022-11-29T10:53:52.400Z,92.04
2022-11-29T10:57:36.804Z,91.39
2022-11-29T11:01:02.462Z,90.81
2022-11-29T11:04:07.521Z,90.37
2022-11-29T11:07:23.041Z,89.57
2022-11-29T11:10:30.877Z,89.23
2022-11-29T11:13:33.617Z,89.86
2022-11-29T11:16:37.652Z,90.11
2022-11-29T11:19:39.717Z,86.86
2022-11-29T11:22:41.612Z,86.46
2022-11-29T11:25:43.497Z,86.80
2022-11-29T11:28:50.207Z,87.19
2022-11-29T11:31:58.089Z,87.19
2022-11-29T11:35:02.132Z,85.85
2022-11-29T11:38:04.015Z,86.31
2022-11-29T11:41:11.880Z,85.64
2022-11-29T11:44:47.021Z,86.04
2022-11-29T11:47:53.613Z,86.32
2022-11-29T11:50:59.357Z,86.15
2022-11-29T11:54:01.296Z,86.84
2022-11-29T11:57:03.478Z,86.41
2022-11-29T12:00:07.329Z,86.55
2022-11-29T12:03:38.250Z,85.74
2022-11-29T12:06:46.239Z,85.74
2022-11-29T12:09:52.935Z,86.26
2022-11-29T12:12:57.481Z,85.89
2022-11-29T12:16:07.342Z,86.13
2022-11-29T12:19:23.840Z,85.22
2022-11-29T12:22:32.833Z,85.19
2022-11-29T12:25:42.703Z,84.92
2022-11-29T12:28:46.272Z,85.36
2022-11-29T12:32:10.168Z,86.30
2022-11-29T12:35:20.850Z,84.79
2022-11-29T12:38:41.639Z,82.80
2022-11-29T12:42:24.801Z,83.43
2022-11-29T12:45:32.381Z,83.66
2022-11-29T12:48:52.514Z,83.27
2022-11-29T12:51:57.131Z,83.63
2022-11-29T12:55:24.855Z,83.01
2022-11-29T12:58:46.433Z,82.67
2022-11-29T13:02:00.353Z,82.80
2022-11-29T13:05:20.100Z,80.88
2022-11-29T13:08:21.882Z,80.18
2022-11-29T13:11:37.498Z,80.24
2022-11-29T13:14:49.809Z,80.60
2022-11-29T13:18:00.946Z,81.47
2022-11-29T13:21:16.843Z,81.88
2022-11-29T13:24:28.629Z,81.04
2022-11-29T13:27:34.880Z,81.61
2022-11-29T13:30:39.277Z,81.89
2022-11-29T13:34:13.157Z,81.69
2022-11-29T13:37:26.774Z,81.03
2022-11-29T13:40:37.192Z,80.63
2022-11-29T13:43:50.182Z,80.93
2022-11-29T13:47:03.404Z,81.59
2022-11-29T13:50:26.482Z,82.10
2022-11-29T13:53:48.295Z,82.14
2022-11-29T13:57:02.071Z,81.84
2022-11-29T14:00:04.868Z,81.11
2022-11-29T14:03:22.006Z,81.19
2022-11-29T14:07:25.060Z,81.48
2022-11-29T14:11:27.306Z,81.77
2022-11-29T14:15:11.902Z,82.34
2022-11-29T14:18:36.556Z,82.91
2022-11-29T14:22:06.757Z,83.13
2022-11-29T14:25:50.652Z,82.82
2022-11-29T14:28:56.563Z,83.56
2022-11-29T14:31:59.769Z,83.45
2022-11-29T14:35:10.714Z,84.13
2022-11-29T14:38:29.225Z,84.71
2022-11-29T14:41:50.897Z,84.64
2022-11-29T14:45:04.733Z,85.17
2022-11-29T14:48:25.914Z,85.17
2022-11-29T14:51:30.729Z,85.43
2022-11-29T14:54:33.887Z,84.64
2022-11-29T14:57:48.145Z,85.01
2022-11-29T15:00:50.074Z,85.65
2022-11-29T15:03:52.768Z,86.23
2022-11-29T15:06:56.928Z,86.26
2022-11-29T15:10:03.483Z,86.75
2022-11-29T15:13:09.003Z,87.11
2022-11-29T16:21:30.836Z,86.66
2022-11-29T16:24:34.527Z,86.63
2022-11-29T16:27:36.797Z,86.81
2022-11-29T16:31:18.920Z,86.51
2022-11-29T16:35:12.272Z,87.06
2022-11-29T16:39:13.881Z,86.20
2022-11-29T16:43:01.662Z,87.04
2022-11-29T16:46:25.636Z,86.11
2022-11-29T16:50:27.908Z,86.64
2022-11-29T16:54:38.394Z,86.02
2022-11-29T16:59:17.314Z,85.78
2022-11-29T17:03:01.660Z,85.67
2022-11-29T17:07:03.251Z,85.74
2022-11-29T17:11:04.941Z,85.01
2022-11-29T17:14:27.779Z,84.25
2022-11-29T17:17:29.947Z,83.39
2022-11-29T17:20:32.447Z,81.94
2022-11-29T17:23:34.775Z,83.26
2022-11-29T17:26:36.727Z,86.17
2022-11-29T17:29:39.148Z,86.48
2022-11-29T17:32:41.386Z,85.38
2022-11-29T17:35:43.219Z,85.05
2022-11-29T17:38:46.016Z,83.46
2022-11-29T17:41:47.839Z,82.99
2022-11-29T17:44:49.732Z,82.61
2022-11-29T17:47:52.865Z,80.71
2022-11-29T17:50:59.512Z,80.50
2022-11-29T17:54:02.951Z,79.97
2022-11-29T17:57:05.031Z,78.56
2022-11-29T18:00:08.852Z,78.45
2022-11-29T18:03:10.977Z,78.81
2022-11-29T18:06:18.183Z,77.99
2022-11-29T18:09:20.437Z,77.62
2022-11-29T18:12:22.631Z,77.30
2022-11-29T18:15:24.678Z,76.55
2022-11-29T18:18:26.810Z,76.58
